createdAt,value
2023-04-05T00:00:34.758Z,2.48
2023-04-05T00:01:34.662Z,2.41
2023-04-05T00:02:34.606Z,2.48
2023-04-05T00:05:34.384Z,2.39
2023-04-05T00:06:34.223Z,2.38
2023-04-05T00:07:34.137Z,2.37
2023-04-05T00:08:34.043Z,2.42
2023-04-05T00:09:33.961Z,2.35
2023-04-05T00:10:33.868Z,2.34
2023-04-05T00:11:33.786Z,2.34
2023-04-05T00:12:33.708Z,2.41
2023-04-05T00:13:33.608Z,2.38
2023-04-05T00:14:33.519Z,2.34
2023-04-05T00:15:33.455Z,2.35
2023-04-05T00:16:33.633Z,2.32
2023-04-05T00:17:33.335Z,2.35
2023-04-05T00:18:33.171Z,2.37
2023-04-05T00:19:33.084Z,2.38
2023-04-05T00:20:32.998Z,2.35
2023-04-05T00:21:32.909Z,2.38
2023-04-05T00:22:32.818Z,2.39
2023-04-05T00:23:32.934Z,2.34
2023-04-05T00:24:32.645Z,2.38
2023-04-05T00:25:32.657Z,2.21
2023-04-05T00:26:32.467Z,2.14
2023-04-05T00:27:32.384Z,2.06
2023-04-05T00:28:32.299Z,1.95
2023-04-05T00:29:32.561Z,1.99
2023-04-05T00:30:32.119Z,1.91
2023-04-05T00:31:32.075Z,1.84
2023-04-05T00:32:32.009Z,1.90
2023-04-05T00:33:31.860Z,1.77
2023-04-05T00:34:31.770Z,1.73
2023-04-05T00:35:31.714Z,1.76
2023-04-05T00:36:31.594Z,1.72
2023-04-05T00:37:31.508Z,1.76
2023-04-05T00:38:31.418Z,1.59
2023-04-05T00:39:31.331Z,1.52
2023-04-05T00:40:31.244Z,1.48
2023-04-05T00:41:31.156Z,1.54
2023-04-05T00:42:31.067Z,1.66
2023-04-05T00:43:30.983Z,1.64
2023-04-05T00:44:30.898Z,1.62
2023-04-05T00:45:30.803Z,1.62
2023-04-05T00:46:30.747Z,1.65
2023-04-05T00:47:30.662Z,1.56
2023-04-05T00:48:30.540Z,1.50
2023-04-05T00:49:30.456Z,1.58
2023-04-05T00:50:30.367Z,1.50
2023-04-05T00:51:30.278Z,1.41
2023-04-05T00:52:30.191Z,1.50
2023-04-05T00:53:30.505Z,1.52
2023-04-05T00:54:30.022Z,1.40
2023-04-05T00:55:29.926Z,1.41
2023-04-05T00:56:29.838Z,1.38
2023-04-05T00:57:29.749Z,1.36
2023-04-05T00:58:29.663Z,1.28
2023-04-05T00:59:29.754Z,1.30
2023-04-05T01:00:29.486Z,1.37
2023-04-05T01:01:29.478Z,1.34
2023-04-05T01:02:29.336Z,1.38
2023-04-05T01:03:29.240Z,1.36
2023-04-05T01:04:29.163Z,1.44
2023-04-05T01:05:29.049Z,1.34
2023-04-05T01:06:28.951Z,1.32
2023-04-05T01:07:28.868Z,1.30
2023-04-05T01:08:28.781Z,1.19
2023-04-05T01:09:28.691Z,1.25
2023-04-05T01:10:28.601Z,1.20
2023-04-05T01:11:28.515Z,1.16
2023-04-05T01:12:28.429Z,1.15
2023-04-05T01:13:28.352Z,1.10
2023-04-05T01:14:28.403Z,1.16
2023-04-05T01:15:28.160Z,1.15
2023-04-05T01:16:28.071Z,1.18
2023-04-05T01:17:28.000Z,1.12
2023-04-05T01:18:27.899Z,1.16
2023-04-05T01:19:27.843Z,1.15
2023-04-05T01:20:27.768Z,1.08
2023-04-05T01:21:27.660Z,1.12
2023-04-05T01:22:27.592Z,1.10
2023-04-05T01:23:27.467Z,1.18
2023-04-05T01:24:27.366Z,1.18
2023-04-05T01:25:27.293Z,1.18
2023-04-05T01:26:27.189Z,1.16
2023-04-05T01:27:27.104Z,1.26
2023-04-05T01:28:27.011Z,1.15
2023-04-05T01:29:27.177Z,1.10
2023-04-05T01:30:26.844Z,1.07
2023-04-05T01:31:26.987Z,1.00
2023-04-05T01:32:26.725Z,1.01
2023-04-05T01:33:26.575Z,1.02
2023-04-05T01:34:26.483Z,0.94
2023-04-05T01:35:26.423Z,0.97
2023-04-05T01:36:26.312Z,1.05
2023-04-05T01:37:26.221Z,1.02
2023-04-05T01:38:26.137Z,0.94
2023-04-05T01:39:26.044Z,1.04
2023-04-05T01:40:25.972Z,0.90
2023-04-05T01:41:25.868Z,0.90
2023-04-05T01:42:25.780Z,0.93
2023-04-05T01:43:25.690Z,0.97
2023-04-05T01:44:25.603Z,0.79
2023-04-05T01:45:25.515Z,0.80
2023-04-05T01:46:25.435Z,0.69
2023-04-05T01:47:25.407Z,0.74
2023-04-05T01:48:25.253Z,0.72
2023-04-05T01:49:25.158Z,0.71
2023-04-05T01:50:25.076Z,0.77
2023-04-05T01:51:25.005Z,0.75
2023-04-05T01:52:24.897Z,0.69
2023-04-05T01:53:24.841Z,0.66
2023-04-05T01:54:24.719Z,0.71
2023-04-05T01:55:24.642Z,0.61
2023-04-05T01:56:24.549Z,0.59
2023-04-05T01:57:24.467Z,0.53
2023-04-05T01:58:24.364Z,0.53
2023-04-05T01:59:24.330Z,0.47
2023-04-05T02:00:24.213Z,0.47
2023-04-05T02:01:24.220Z,0.49
2023-04-05T02:02:24.038Z,0.57
2023-04-05T02:03:24.033Z,0.57
2023-04-05T02:04:23.837Z,0.49
2023-04-05T02:05:23.787Z,0.46
2023-04-05T02:06:23.692Z,0.45
2023-04-05T02:07:23.588Z,0.47
2023-04-05T02:08:23.479Z,0.40
2023-04-05T02:09:23.626Z,0.34
2023-04-05T02:10:23.537Z,0.34
2023-04-05T02:11:23.223Z,0.32
2023-04-05T02:12:23.164Z,0.35
2023-04-05T02:13:23.073Z,0.34
2023-04-05T02:14:22.980Z,0.36
2023-04-05T02:15:22.859Z,0.34
2023-04-05T02:16:22.805Z,0.18
2023-04-05T02:17:22.727Z,0.28
2023-04-05T02:18:22.742Z,0.27
2023-04-05T02:19:22.542Z,0.24
2023-04-05T02:20:22.453Z,0.14
2023-04-05T02:21:22.328Z,0.13
2023-04-05T02:23:22.370Z,0.10
2023-04-05T02:24:22.093Z,0.14
2023-04-05T02:25:21.970Z,0.17
2023-04-05T02:26:21.918Z,0.22
2023-04-05T02:28:21.737Z,0.24
2023-04-05T02:29:21.614Z,0.22
2023-04-05T02:30:21.558Z,0.18
2023-04-05T02:31:21.693Z,0.17
2023-04-05T02:32:21.487Z,0.10
2023-04-05T02:33:21.300Z,0.13
2023-04-05T02:34:21.172Z,0.09
2023-04-05T02:35:21.145Z,0.11
2023-04-05T02:37:20.942Z,0.22
2023-04-05T02:38:20.858Z,0.07
2023-04-05T02:39:20.750Z,0.22
2023-04-05T02:41:20.549Z,0.14
2023-04-05T02:42:20.495Z,0.03
2023-04-05T02:43:20.407Z,-0.01
2023-04-05T02:44:20.314Z,-0.07
2023-04-05T02:45:20.237Z,-0.08
2023-04-05T02:46:20.271Z,-0.12
2023-04-05T02:47:20.561Z,-0.07
2023-04-05T02:48:19.962Z,-0.14
2023-04-05T02:50:19.988Z,-0.14
2023-04-05T02:51:19.702Z,-0.22
2023-04-05T02:52:19.663Z,-0.20
2023-04-05T02:53:19.517Z,-0.12
2023-04-05T02:54:19.388Z,-0.12
2023-04-05T02:55:19.330Z,-0.20
2023-04-05T03:06:18.316Z,-0.26
2023-04-05T03:07:18.384Z,-0.23
2023-04-05T03:09:25.623Z,-0.28
2023-04-05T03:10:25.570Z,-0.23
2023-04-05T03:11:25.443Z,-0.25
2023-04-05T03:12:25.357Z,-0.23
2023-04-05T03:13:25.294Z,-0.29
2023-04-05T03:14:25.180Z,-0.30
2023-04-05T03:15:25.098Z,-0.43
2023-04-05T03:16:25.045Z,-0.40
2023-04-05T03:17:25.037Z,-0.37
2023-04-05T03:18:24.822Z,-0.37
2023-04-05T03:19:24.736Z,-0.48
2023-04-05T03:21:24.643Z,-0.46
2023-04-05T03:22:24.465Z,-0.53
2023-04-05T03:23:24.374Z,-0.50
2023-04-05T03:24:24.284Z,-0.58
2023-04-05T03:25:24.196Z,-0.54
2023-04-05T03:26:24.128Z,-0.61
2023-04-05T03:27:24.018Z,-0.61
2023-04-05T03:28:23.932Z,-0.64
2023-04-05T03:29:23.841Z,-0.66
2023-04-05T03:30:23.749Z,-0.71
2023-04-05T03:33:23.483Z,-0.61
2023-04-05T03:34:23.392Z,-0.62
2023-04-05T03:35:23.360Z,-0.62
2023-04-05T03:36:23.262Z,-0.72
2023-04-05T03:37:23.129Z,-0.59
2023-04-05T03:38:23.031Z,-0.64
2023-04-05T03:39:22.944Z,-0.65
2023-04-05T03:40:22.861Z,-0.71
2023-04-05T03:41:22.764Z,-0.84
2023-04-05T03:42:22.699Z,-0.69
2023-04-05T03:43:22.592Z,-0.83
2023-04-05T03:44:22.494Z,-0.72
2023-04-05T03:45:24.525Z,-0.80
2023-04-05T03:46:22.376Z,-0.74
2023-04-05T03:47:22.233Z,-0.79
2023-04-05T03:49:22.051Z,-0.86
2023-04-05T03:50:21.955Z,-0.80
2023-04-05T03:52:21.779Z,-0.72
2023-04-05T03:53:21.687Z,-0.68
2023-04-05T03:54:21.599Z,-0.79
2023-04-05T03:55:21.507Z,-0.80
2023-04-05T03:56:21.422Z,-0.87
2023-04-05T03:57:21.488Z,-0.82
2023-04-05T03:58:21.265Z,-0.82
2023-04-05T03:59:21.355Z,-0.86
2023-04-05T04:00:21.066Z,-0.83
2023-04-05T04:01:20.997Z,-0.84
2023-04-05T04:02:20.969Z,-0.84
2023-04-05T04:03:21.046Z,-0.79
2023-04-05T04:04:20.701Z,-0.79
2023-04-05T04:05:20.776Z,-0.86
2023-04-05T04:06:20.587Z,-0.87
2023-04-05T04:07:20.430Z,-0.86
2023-04-05T04:08:20.343Z,-0.79
2023-04-05T04:09:20.301Z,-0.77
2023-04-05T04:10:20.163Z,-0.82
2023-04-05T04:11:20.071Z,-0.84
2023-04-05T04:12:19.980Z,-0.83
2023-04-05T04:13:19.939Z,-0.80
2023-04-05T04:14:19.842Z,-0.83
2023-04-05T04:15:19.711Z,-0.77
2023-04-05T04:16:19.641Z,-0.79
2023-04-05T04:17:19.534Z,-0.93
2023-04-05T04:18:19.456Z,-0.90
2023-04-05T04:19:20.380Z,-0.93
2023-04-05T04:21:07.027Z,-0.90
2023-04-05T04:22:06.648Z,-0.87
2023-04-05T04:23:06.556Z,-0.98
2023-04-05T04:24:06.921Z,-0.93
2023-04-05T04:25:06.382Z,-0.93
2023-04-05T04:26:06.297Z,-1.03
2023-04-05T04:27:06.197Z,-1.03
2023-04-05T04:28:06.113Z,-1.05
2023-04-05T04:29:06.238Z,-1.01
2023-04-05T04:30:05.951Z,-0.91
2023-04-05T04:31:05.841Z,-0.99
2023-04-05T04:32:05.867Z,-0.93
2023-04-05T04:33:08.231Z,-0.93
2023-04-05T04:34:05.579Z,-0.95
2023-04-05T04:35:05.517Z,-0.93
2023-04-05T04:36:05.417Z,-0.96
2023-04-05T04:37:05.302Z,-1.03
2023-04-05T04:38:05.223Z,-1.11
2023-04-05T04:39:05.122Z,-1.19
2023-04-05T04:40:05.039Z,-1.05
2023-04-05T04:41:04.955Z,-1.06
2023-04-05T04:42:04.863Z,-1.17
2023-04-05T04:43:04.763Z,-1.09
2023-04-05T04:44:04.671Z,-1.06
2023-04-05T04:45:04.583Z,-1.06
2023-04-05T04:46:04.561Z,-1.03
2023-04-05T04:47:04.404Z,-1.08
2023-04-05T04:48:04.334Z,-0.91
2023-04-05T04:49:04.223Z,-0.96
2023-04-05T04:50:04.132Z,-0.96
2023-04-05T04:51:04.054Z,-0.96
2023-04-05T04:52:03.954Z,-0.98
2023-04-05T04:53:03.870Z,-0.93
2023-04-05T04:54:03.773Z,-0.96
2023-04-05T04:55:03.682Z,-1.09
2023-04-05T04:56:03.597Z,-1.03
2023-04-05T04:57:03.506Z,-1.08
2023-04-05T04:58:03.420Z,-1.05
2023-04-05T04:59:03.357Z,-1.03
2023-04-05T05:00:03.388Z,-0.93
2023-04-05T05:01:03.274Z,-1.08
2023-04-05T05:02:03.078Z,-1.05
2023-04-05T05:03:02.990Z,-0.93
2023-04-05T05:04:02.924Z,-0.91
2023-04-05T05:05:02.811Z,-0.87
2023-04-05T05:06:02.716Z,-0.86
2023-04-05T05:07:02.631Z,-0.95
2023-04-05T05:08:02.533Z,-0.93
2023-04-05T05:09:02.439Z,-0.84
2023-04-05T05:10:02.347Z,-0.90
2023-04-05T05:11:02.288Z,-0.80
2023-04-05T05:12:02.167Z,-0.91
2023-04-05T05:13:02.080Z,-0.98
2023-04-05T05:14:01.985Z,-0.90
2023-04-05T05:15:01.891Z,-0.93
2023-04-05T05:16:01.809Z,-1.08
2023-04-05T05:17:01.765Z,-1.09
2023-04-05T05:18:02.600Z,-1.03
2023-04-05T05:19:01.537Z,-1.13
2023-04-05T05:20:01.446Z,-0.98
2023-04-05T05:21:01.355Z,-1.08
2023-04-05T05:22:01.270Z,-1.06
2023-04-05T05:23:01.986Z,-0.95
2023-04-05T05:24:01.085Z,-0.96
2023-04-05T05:25:01.045Z,-1.05
2023-04-05T05:26:00.905Z,-1.08
2023-04-05T05:27:01.172Z,-1.01
2023-04-05T05:28:00.730Z,-0.98
2023-04-05T05:29:00.637Z,-0.99
2023-04-05T05:30:00.605Z,-0.96
2023-04-05T05:31:00.485Z,-0.95
2023-04-05T05:32:00.371Z,-0.93
2023-04-05T05:33:00.293Z,-0.91
2023-04-05T05:34:00.208Z,-0.95
2023-04-05T05:35:00.110Z,-0.93
2023-04-05T05:36:00.058Z,-0.91
2023-04-05T05:36:59.919Z,-0.90
2023-04-05T05:37:59.835Z,-0.95
2023-04-05T05:38:59.736Z,-0.95
2023-04-05T05:39:59.661Z,-0.95
2023-04-05T05:40:59.631Z,-0.93
2023-04-05T05:41:59.471Z,-0.90
2023-04-05T05:42:59.375Z,-0.83
2023-04-05T05:43:59.294Z,-0.83
2023-04-05T05:44:59.198Z,-0.84
2023-04-05T05:45:59.135Z,-0.69
2023-04-05T05:46:59.020Z,-0.68
2023-04-05T05:47:59.031Z,-0.68
2023-04-05T05:48:58.846Z,-0.71
2023-04-05T05:49:58.774Z,-0.66
2023-04-05T05:50:58.657Z,-0.69
2023-04-05T05:51:58.578Z,-0.72
2023-04-05T05:53:00.266Z,-0.72
2023-04-05T05:53:58.391Z,-0.74
2023-04-05T05:54:58.300Z,-0.65
2023-04-05T05:55:58.265Z,-0.68
2023-04-05T05:56:58.131Z,-0.68
2023-04-05T05:57:58.037Z,-0.69
2023-04-05T05:58:58.272Z,-0.71
2023-04-05T05:59:57.854Z,-0.66
2023-04-05T06:00:57.770Z,-0.65
2023-04-05T06:01:57.677Z,-0.71
2023-04-05T06:02:57.657Z,-0.61
2023-04-05T06:03:57.552Z,-0.51
2023-04-05T06:04:57.453Z,-0.46
2023-04-05T06:05:57.337Z,-0.43
2023-04-05T06:06:57.226Z,-0.40
2023-04-05T06:07:57.140Z,-0.38
2023-04-05T06:08:57.052Z,-0.32
2023-04-05T06:09:56.964Z,-0.23
2023-04-05T06:10:56.889Z,-0.17
2023-04-05T06:11:57.433Z,-0.14
2023-04-05T06:12:56.696Z,-0.15
2023-04-05T06:13:56.612Z,-0.10
2023-04-05T06:14:56.513Z,-0.08
2023-04-05T06:15:56.459Z,0.06
2023-04-05T06:16:56.339Z,0.06
2023-04-05T06:17:56.255Z,0.01
2023-04-05T06:18:58.779Z,0.04
2023-04-05T06:19:56.079Z,0.09
2023-04-05T06:20:55.977Z,0.14
2023-04-05T06:21:55.953Z,0.17
2023-04-05T06:22:55.800Z,0.21
2023-04-05T06:23:55.710Z,0.25
2023-04-05T06:24:55.624Z,0.29
2023-04-05T06:25:55.544Z,0.28
2023-04-05T06:26:55.447Z,0.47
2023-04-05T06:27:55.359Z,0.43
2023-04-05T06:28:55.266Z,0.52
2023-04-05T06:29:55.183Z,0.52
2023-04-05T06:30:55.085Z,0.68
2023-04-05T06:31:55.036Z,0.72
2023-04-05T06:32:54.998Z,0.74
2023-04-05T06:33:54.827Z,0.79
2023-04-05T06:34:54.741Z,0.86
2023-04-05T06:35:54.665Z,0.98
2023-04-05T06:36:54.559Z,0.98
2023-04-05T06:37:54.495Z,0.94
2023-04-05T06:38:54.384Z,1.00
2023-04-05T06:39:54.292Z,1.00
2023-04-05T06:40:54.443Z,1.12
2023-04-05T06:41:54.365Z,1.08
2023-04-05T06:42:54.022Z,1.16
2023-04-05T06:43:53.946Z,1.29
2023-04-05T06:44:53.848Z,1.26
2023-04-05T06:45:53.957Z,1.30
2023-04-05T06:46:53.674Z,1.28
2023-04-05T06:47:53.627Z,1.41
2023-04-05T06:48:53.591Z,1.44
2023-04-05T06:49:53.691Z,1.59
2023-04-05T06:50:53.318Z,1.74
2023-04-05T06:51:53.236Z,1.64
2023-04-05T06:52:53.144Z,1.65
2023-04-05T06:53:53.118Z,1.68
2023-04-05T06:54:52.973Z,1.73
2023-04-05T06:55:52.893Z,1.74
2023-04-05T06:56:52.798Z,1.87
2023-04-05T06:57:52.712Z,1.92
2023-04-05T06:58:52.634Z,2.14
2023-04-05T06:59:52.532Z,2.12
2023-04-05T07:00:52.470Z,2.14
2023-04-05T07:01:52.545Z,2.31
2023-04-05T07:02:52.303Z,2.32
2023-04-05T07:03:52.190Z,2.39
2023-04-05T07:04:52.113Z,2.37
2023-04-05T07:05:52.014Z,2.39
2023-04-05T07:06:51.925Z,2.32
2023-04-05T07:07:51.833Z,2.50
2023-04-05T07:08:51.746Z,2.49
2023-04-05T07:09:51.691Z,2.50
2023-04-05T07:10:51.572Z,2.62
2023-04-05T07:11:51.490Z,2.63
2023-04-05T07:12:51.408Z,2.67
2023-04-05T07:13:51.472Z,2.63
2023-04-05T07:14:51.248Z,2.67
2023-04-05T07:15:51.185Z,2.86
2023-04-05T07:16:51.107Z,2.93
2023-04-05T07:17:51.028Z,3.04
2023-04-05T07:18:50.877Z,3.07
2023-04-05T09:00:50.736Z,7.30
2023-04-05T09:01:51.235Z,7.34
2023-04-05T09:02:50.687Z,7.38
2023-04-05T09:03:50.492Z,7.44
2023-04-05T09:04:50.392Z,7.48
2023-04-05T09:05:50.291Z,7.59
2023-04-05T09:06:50.210Z,7.76
2023-04-05T09:07:50.327Z,7.72
2023-04-05T09:08:50.039Z,7.60
2023-04-05T09:09:49.956Z,7.60
2023-04-05T09:10:49.871Z,7.44
2023-04-05T09:11:49.793Z,7.48
2023-04-05T09:12:51.344Z,7.45
2023-04-05T09:13:49.621Z,7.49
2023-04-05T09:14:49.593Z,7.47
2023-04-05T09:15:49.462Z,7.31
2023-04-05T09:16:49.491Z,7.37
2023-04-05T09:17:49.332Z,7.45
2023-04-05T09:18:49.225Z,7.39
2023-04-05T11:17:17.481Z,10.83
2023-04-05T11:18:17.380Z,11.28
2023-04-05T11:19:17.302Z,11.34
2023-04-05T11:20:17.222Z,11.51
2023-04-05T11:21:17.492Z,11.67
2023-04-05T11:22:17.065Z,11.78
2023-04-05T11:23:17.037Z,11.97
2023-04-05T11:24:16.916Z,11.93
2023-04-05T11:25:16.835Z,11.83
2023-04-05T11:28:42.390Z,12.59
2023-04-05T11:30:29.800Z,12.56
2023-04-05T11:31:29.766Z,12.64
2023-04-05T11:32:29.707Z,12.15
2023-04-05T11:33:29.572Z,11.56
2023-04-05T11:34:29.494Z,11.56
2023-04-05T11:35:29.428Z,11.38
2023-04-05T11:36:29.343Z,11.46
2023-04-05T11:37:29.267Z,11.76
2023-04-05T11:38:29.189Z,12.49
2023-04-05T11:39:29.114Z,12.94
2023-04-05T11:40:29.046Z,13.25
2023-04-05T11:41:28.962Z,12.91
2023-04-05T11:42:28.900Z,12.79
2023-04-05T11:43:28.811Z,12.97
2023-04-05T11:44:28.739Z,12.96
2023-04-05T11:45:31.181Z,12.97
2023-04-05T11:46:28.624Z,13.44
2023-04-05T11:47:28.531Z,13.53
2023-04-05T11:48:28.459Z,13.84
2023-04-05T11:49:28.365Z,13.96
2023-04-05T11:50:28.295Z,14.49
2023-04-05T11:51:28.220Z,15.03
2023-04-05T11:52:28.151Z,14.16
2023-04-05T11:53:28.074Z,13.56
2023-04-05T11:54:28.001Z,13.83
2023-04-05T11:55:27.937Z,14.27
2023-04-05T11:56:27.861Z,14.97
2023-04-05T11:57:27.784Z,15.41
2023-04-05T11:59:28.112Z,14.88
2023-04-05T12:01:27.536Z,14.60
2023-04-05T12:02:27.523Z,15.02
2023-04-05T12:03:27.427Z,15.33
2023-04-05T12:04:27.320Z,15.68
2023-04-05T12:05:27.214Z,15.76
2023-04-05T12:09:42.842Z,16.33
2023-04-05T12:10:42.774Z,15.55
2023-04-05T12:11:42.702Z,14.72
2023-04-05T12:12:42.657Z,14.36
2023-04-05T12:13:42.563Z,14.28
2023-04-05T12:14:42.499Z,14.74
2023-04-05T12:15:42.809Z,15.12
2023-04-05T12:16:42.433Z,14.98
2023-04-05T12:17:42.301Z,14.97
2023-04-05T12:18:42.229Z,14.50
2023-04-05T12:19:42.170Z,14.39
2023-04-05T12:20:42.085Z,14.56
2023-04-05T12:21:42.726Z,14.90
2023-04-05T12:27:53.538Z,14.59
2023-04-05T12:29:53.799Z,15.13
2023-04-05T12:30:53.337Z,14.95
2023-04-05T12:35:18.929Z,15.60
2023-04-05T12:36:18.906Z,15.68
2023-04-05T12:37:18.773Z,15.79
2023-04-05T12:38:18.740Z,16.22
2023-04-05T12:39:21.100Z,16.25
2023-04-05T12:40:18.572Z,16.40
2023-04-05T12:41:18.852Z,16.27
2023-04-05T12:42:18.436Z,16.23
2023-04-05T12:43:18.367Z,16.04
2023-04-05T12:44:18.300Z,16.63
2023-04-05T12:45:18.233Z,17.17
2023-04-05T12:47:20.926Z,17.71
2023-04-05T12:48:18.034Z,17.05
2023-04-05T12:49:17.963Z,16.33
2023-04-05T12:50:17.942Z,16.26
2023-04-05T12:51:17.859Z,16.00
2023-04-05T12:52:17.765Z,16.27
2023-04-05T12:53:17.699Z,16.65
2023-04-05T12:54:17.631Z,15.88
2023-04-05T12:55:17.565Z,16.12
2023-04-05T12:56:17.746Z,15.97
2023-04-05T12:57:17.581Z,16.10
2023-04-05T12:58:17.370Z,15.99
2023-04-05T12:59:17.391Z,15.73
2023-04-05T13:00:17.243Z,16.06
2023-04-05T13:01:17.201Z,17.20
2023-04-05T13:02:17.181Z,17.89
2023-04-05T13:03:17.222Z,16.73
2023-04-05T13:04:17.220Z,15.61
2023-04-05T13:05:16.909Z,15.46
2023-04-05T13:06:16.994Z,14.98
2023-04-05T13:07:16.787Z,15.26
2023-04-05T13:08:16.727Z,15.68
2023-04-05T13:09:16.635Z,15.79
2023-04-05T13:10:16.570Z,16.00
2023-04-05T13:11:19.122Z,15.81
2023-04-05T13:12:16.738Z,16.29
2023-04-05T13:13:16.378Z,16.75
2023-04-05T13:14:16.306Z,16.98
2023-04-05T13:15:16.235Z,16.75
2023-04-05T13:16:16.197Z,16.60
2023-04-05T13:17:16.539Z,16.63
2023-04-05T13:18:16.051Z,16.98
2023-04-05T13:19:15.968Z,17.39
2023-04-05T13:20:15.911Z,17.98
2023-04-05T13:21:15.836Z,17.85
2023-04-05T13:22:15.770Z,17.46
2023-04-05T13:23:15.816Z,17.21
2023-04-05T13:25:15.788Z,16.93
2023-04-05T13:26:15.510Z,17.08
2023-04-05T13:27:15.443Z,17.17
2023-04-05T13:28:15.374Z,17.60
2023-04-05T13:29:15.305Z,17.71
2023-04-05T13:30:15.237Z,17.63
2023-04-05T13:31:17.842Z,17.57
2023-04-05T13:32:15.108Z,17.82
2023-04-05T13:33:15.041Z,18.29
2023-04-05T13:34:14.975Z,18.47
2023-04-05T13:35:14.910Z,17.57
2023-04-05T13:36:14.885Z,17.58
2023-04-05T13:37:14.775Z,17.51
2023-04-05T13:38:14.744Z,17.11
2023-04-05T13:39:14.714Z,16.15
2023-04-05T13:40:14.576Z,16.23
2023-04-05T13:41:14.513Z,16.07
2023-04-05T13:42:14.451Z,15.63
2023-04-05T13:43:14.375Z,16.01
2023-04-05T13:44:14.338Z,16.65
2023-04-05T13:45:14.251Z,16.29
2023-04-05T13:46:14.205Z,16.14
2023-04-05T13:47:14.109Z,16.12
2023-04-05T13:48:14.062Z,15.96
2023-04-05T13:49:13.985Z,16.25
2023-04-05T13:50:13.917Z,16.74
2023-04-05T13:51:13.847Z,17.20
2023-04-05T13:52:13.790Z,16.37
2023-04-05T13:53:14.724Z,16.71
2023-04-05T13:54:13.650Z,17.07
2023-04-05T13:55:13.614Z,17.30
2023-04-05T13:56:13.515Z,17.91
2023-04-05T13:57:13.445Z,17.96
2023-04-05T13:58:13.380Z,17.60
2023-04-05T13:59:13.372Z,17.70
2023-04-05T14:00:13.404Z,18.32
2023-04-05T14:01:13.194Z,18.42
2023-04-05T14:02:13.115Z,17.98
2023-04-05T14:03:13.123Z,18.00
2023-04-05T14:04:12.986Z,17.71
2023-04-05T14:05:12.913Z,17.17
2023-04-05T14:06:12.851Z,16.53
2023-04-05T14:07:12.788Z,17.18
2023-04-05T14:08:12.722Z,17.60
2023-04-05T14:09:12.702Z,17.63
2023-04-05T14:10:12.590Z,17.17
2023-04-05T14:11:12.551Z,17.21
2023-04-05T14:12:14.026Z,17.30
2023-04-05T14:14:15.502Z,16.63
2023-04-05T14:15:12.254Z,16.82
2023-04-05T14:16:12.350Z,16.93
2023-04-05T14:17:12.118Z,17.23
2023-04-05T14:18:12.113Z,17.43
2023-04-05T14:19:11.985Z,17.64
2023-04-05T14:20:11.916Z,17.73
2023-04-05T14:21:11.852Z,17.51
2023-04-05T14:22:11.787Z,17.57
2023-04-05T14:23:11.728Z,17.92
2023-04-05T14:24:11.658Z,17.88
2023-04-05T14:25:11.586Z,18.04
2023-04-05T14:26:11.530Z,18.27
2023-04-05T14:27:11.488Z,17.98
2023-04-05T14:28:11.388Z,17.98
2023-04-05T14:29:11.321Z,17.91
2023-04-05T14:30:11.384Z,17.54
2023-04-05T14:31:11.221Z,18.00
2023-04-05T14:32:11.211Z,18.21
2023-04-05T14:33:12.091Z,18.24
2023-04-05T14:34:10.992Z,18.32
2023-04-05T14:35:10.937Z,18.42
2023-04-05T14:36:10.863Z,17.57
2023-04-05T14:37:10.795Z,17.74
2023-04-05T14:38:11.743Z,17.84
2023-04-05T14:39:10.660Z,18.04
2023-04-05T14:40:10.594Z,18.10
2023-04-05T14:41:10.529Z,18.21
2023-04-05T14:42:10.462Z,18.53
2023-04-05T14:43:10.422Z,18.34
2023-04-05T14:44:10.341Z,17.60
2023-04-05T14:45:57.871Z,17.44
2023-04-05T14:46:57.698Z,17.25
2023-04-05T14:47:57.691Z,17.13
2023-04-05T14:48:58.575Z,17.25
2023-04-05T14:49:57.494Z,16.99
2023-04-05T14:50:57.433Z,17.08
2023-04-05T14:51:57.459Z,16.93
2023-04-05T14:52:57.295Z,16.93
2023-04-05T14:53:57.231Z,17.23
2023-04-05T14:54:57.164Z,17.21
2023-04-05T14:55:57.092Z,17.28
2023-04-05T14:56:57.125Z,17.25
2023-04-05T14:57:57.016Z,17.63
2023-04-05T14:58:56.951Z,17.70
2023-04-05T14:59:56.830Z,17.05
2023-04-05T15:00:56.775Z,16.99
2023-04-05T15:01:56.688Z,16.98
2023-04-05T15:02:56.671Z,17.21
2023-04-05T15:03:56.626Z,17.05
2023-04-05T15:04:56.687Z,16.48
2023-04-05T15:05:56.417Z,15.97
2023-04-05T15:07:38.840Z,15.24
2023-04-05T15:08:38.777Z,15.45
2023-04-05T15:09:38.707Z,15.45
2023-04-05T15:10:38.827Z,15.91
2023-04-05T15:12:21.058Z,16.23
2023-04-05T15:13:20.991Z,16.37
2023-04-05T15:14:31.095Z,16.00
2023-04-05T15:15:20.856Z,15.78
2023-04-05T15:16:20.845Z,15.45
2023-04-05T15:17:20.716Z,15.33
2023-04-05T15:18:20.644Z,15.64
2023-04-05T15:19:20.576Z,16.03
2023-04-05T15:20:20.515Z,16.55
2023-04-05T15:21:20.452Z,16.77
2023-04-05T15:22:20.368Z,16.35
2023-04-05T15:23:20.301Z,16.47
2023-04-05T15:24:20.230Z,16.82
2023-04-05T15:25:20.409Z,16.85
2023-04-05T15:26:20.090Z,17.25
2023-04-05T15:27:20.026Z,17.53
2023-04-05T15:28:19.953Z,17.60
2023-04-05T15:29:19.883Z,17.08
2023-04-05T15:30:20.290Z,16.81
2023-04-05T15:31:19.755Z,16.82
2023-04-05T15:32:19.676Z,17.00
2023-04-05T15:33:19.607Z,17.17
2023-04-05T15:34:19.540Z,17.30
2023-04-05T15:35:19.468Z,17.39
2023-04-05T15:36:19.399Z,17.15
2023-04-05T15:37:19.333Z,16.56
2023-04-05T15:38:19.264Z,15.79
2023-04-05T15:40:19.144Z,15.73
2023-04-05T15:41:19.053Z,15.81
2023-04-05T15:42:18.983Z,15.91
2023-04-05T15:43:18.914Z,16.29
2023-04-05T15:44:18.844Z,16.65
2023-04-05T15:45:18.776Z,16.14
2023-04-05T15:46:18.885Z,16.00
2023-04-05T15:47:18.644Z,15.70
2023-04-05T15:48:18.604Z,16.10
2023-04-05T15:49:18.500Z,16.35
2023-04-05T15:50:18.576Z,16.52
2023-04-05T15:51:18.654Z,16.96
2023-04-05T15:52:18.296Z,17.11
2023-04-05T15:53:18.216Z,16.95
2023-04-05T15:54:18.155Z,16.60
2023-04-05T15:55:18.080Z,16.41
2023-04-05T15:56:18.019Z,16.20
2023-04-05T15:57:17.940Z,16.04
2023-04-05T15:58:18.079Z,16.30
2023-04-05T15:59:17.842Z,16.59
2023-04-05T16:00:17.732Z,16.03
2023-04-05T16:01:17.718Z,15.57
2023-04-05T16:02:18.014Z,15.55
2023-04-05T16:03:17.625Z,15.81
2023-04-05T16:04:17.466Z,15.73
2023-04-05T16:05:17.380Z,15.59
2023-04-05T16:06:17.316Z,15.68
2023-04-05T16:07:17.538Z,15.96
2023-04-05T16:08:17.272Z,15.70
2023-04-05T16:09:17.107Z,15.48
2023-04-05T16:10:17.030Z,15.28
2023-04-05T16:11:16.958Z,15.59
2023-04-05T16:15:01.803Z,15.06
2023-04-05T16:16:01.770Z,14.98
2023-04-05T16:17:01.704Z,15.15
2023-04-05T16:18:01.632Z,14.84
2023-04-05T16:20:01.498Z,15.23
2023-04-05T16:21:01.413Z,15.23
2023-04-05T16:22:01.343Z,15.55
2023-04-05T16:23:01.230Z,16.06
2023-04-05T16:24:01.226Z,16.06
2023-04-05T16:25:01.133Z,15.79
2023-04-05T16:26:01.274Z,15.48
2023-04-05T16:27:01.034Z,14.71
2023-04-05T16:28:00.910Z,14.05
2023-04-05T16:29:01.105Z,13.33
2023-04-05T16:30:00.731Z,12.91
2023-04-05T16:31:00.663Z,12.71
2023-04-05T16:32:00.733Z,12.51
2023-04-05T16:33:00.566Z,12.44
2023-04-05T16:34:00.476Z,12.33
2023-04-05T16:35:00.368Z,12.18
2023-04-05T16:36:00.578Z,12.23
2023-04-05T16:37:00.409Z,12.23
2023-04-05T16:38:00.201Z,12.13
2023-04-05T16:39:00.199Z,12.13
2023-04-05T16:39:59.996Z,11.81
2023-04-05T16:40:59.925Z,11.86
2023-04-05T16:41:59.845Z,11.75
2023-04-05T16:42:59.768Z,11.68
2023-04-05T16:43:59.699Z,11.75
2023-04-05T16:44:59.618Z,11.68
2023-04-05T16:45:59.847Z,11.53
2023-04-05T16:46:59.466Z,11.56
2023-04-05T16:47:59.453Z,11.34
2023-04-05T16:48:59.411Z,11.31
2023-04-05T16:49:59.266Z,11.34
2023-04-05T16:50:59.156Z,11.36
2023-04-05T16:51:59.076Z,11.26
2023-04-05T16:52:59.044Z,11.26
2023-04-05T16:53:58.967Z,11.18
2023-04-05T16:55:58.771Z,11.29
2023-04-05T16:56:58.942Z,11.20
2023-04-05T16:57:58.649Z,11.10
2023-04-05T16:58:58.805Z,10.99
2023-04-05T16:59:58.453Z,10.95
2023-04-05T17:00:58.406Z,10.91
2023-04-05T17:01:58.301Z,11.03
2023-04-05T17:02:58.326Z,10.99
2023-04-05T17:03:58.546Z,11.03
2023-04-05T17:04:58.069Z,10.80
2023-04-05T17:05:58.004Z,10.95
2023-04-05T17:06:57.904Z,10.96
2023-04-05T17:07:57.825Z,10.95
2023-04-05T17:08:57.744Z,11.00
2023-04-05T17:09:57.666Z,10.93
2023-04-05T17:10:57.587Z,10.75
2023-04-05T17:11:57.507Z,10.75
2023-04-05T17:12:57.432Z,10.75
2023-04-05T17:13:57.346Z,10.80
2023-04-05T17:14:57.266Z,10.87
2023-04-05T17:15:57.203Z,10.75
2023-04-05T17:16:57.106Z,10.74
2023-04-05T17:17:57.088Z,10.56
2023-04-05T17:18:56.954Z,10.56
2023-04-05T17:19:56.865Z,10.62
2023-04-05T17:20:56.804Z,10.37
2023-04-05T17:21:56.832Z,10.31
2023-04-05T17:22:56.627Z,10.21
2023-04-05T17:23:56.590Z,10.18
2023-04-05T17:24:56.500Z,10.01
2023-04-05T17:25:56.407Z,9.80
2023-04-05T17:26:56.326Z,9.68
2023-04-05T17:27:56.241Z,9.43
2023-04-05T17:28:56.210Z,9.34
2023-04-05T17:29:56.077Z,9.24
2023-04-05T17:30:56.033Z,9.06